createdAt,value
2023-11-24T00:00:15.725Z,16.51
2023-11-24T00:02:42.317Z,16.64
2023-11-24T00:05:09.093Z,16.39
2023-11-24T00:07:36.240Z,16.49
2023-11-24T00:10:03.994Z,16.26
2023-11-24T00:12:30.587Z,16.15
2023-11-24T00:14:57.251Z,16.00
2023-11-24T00:17:23.735Z,16.07
2023-11-24T00:19:50.245Z,16.09
2023-11-24T00:22:16.727Z,16.05
2023-11-24T00:24:43.198Z,16.02
2023-11-24T00:27:09.671Z,16.02
2023-11-24T00:29:36.278Z,15.97
2023-11-24T00:32:02.973Z,15.86
2023-11-24T00:34:29.541Z,15.83
2023-11-24T00:36:56.155Z,15.72
2023-11-24T00:39:22.671Z,15.89
2023-11-24T00:41:49.261Z,15.66
2023-11-24T00:44:15.837Z,15.85
2023-11-24T00:46:42.477Z,15.78
2023-11-24T00:49:08.946Z,15.76
2023-11-24T00:51:35.500Z,15.74
2023-11-24T00:54:02.062Z,15.70
2023-11-24T00:56:28.603Z,15.54
2023-11-24T00:58:55.116Z,15.55
2023-11-24T01:01:21.712Z,15.58
2023-11-24T01:03:48.270Z,15.61
2023-11-24T01:06:14.843Z,15.62
2023-11-24T01:08:41.367Z,15.69
2023-11-24T01:11:07.924Z,15.63
2023-11-24T01:13:34.553Z,15.63
2023-11-24T01:16:01.146Z,15.38
2023-11-24T01:18:27.773Z,15.24
2023-11-24T01:20:54.323Z,15.24
2023-11-24T01:23:20.852Z,15.19
2023-11-24T01:25:47.681Z,14.83
2023-11-24T01:28:14.222Z,14.71
2023-11-24T01:30:41.616Z,14.91
2023-11-24T01:33:08.203Z,14.97
2023-11-24T01:35:34.827Z,14.95
2023-11-24T01:38:01.367Z,15.05
2023-11-24T01:40:27.901Z,14.84
2023-11-24T01:42:54.396Z,14.72
2023-11-24T01:45:20.957Z,15.04
2023-11-24T01:47:47.474Z,14.91
2023-11-24T01:50:15.702Z,14.83
2023-11-24T01:52:42.526Z,14.91
2023-11-24T01:55:09.593Z,15.05
2023-11-24T01:57:36.296Z,15.01
2023-11-24T02:00:03.119Z,14.99
2023-11-24T02:02:30.464Z,14.89
2023-11-24T02:04:57.306Z,14.79
2023-11-24T02:07:24.034Z,14.61
2023-11-24T02:09:51.009Z,14.49
2023-11-24T02:12:17.585Z,14.33
2023-11-24T02:14:44.125Z,14.32
2023-11-24T02:17:10.650Z,14.30
2023-11-24T02:19:37.317Z,14.49
2023-11-24T02:22:03.835Z,14.44
2023-11-24T02:24:30.372Z,14.33
2023-11-24T02:26:57.143Z,14.18
2023-11-24T02:29:23.682Z,13.94
2023-11-24T02:31:50.210Z,13.71
2023-11-24T02:34:16.827Z,13.99
2023-11-24T02:36:43.480Z,13.96
2023-11-24T02:39:10.210Z,14.16
2023-11-24T02:41:36.768Z,14.09
2023-11-24T02:44:03.444Z,14.15
2023-11-24T02:46:29.946Z,13.93
2023-11-24T02:48:56.687Z,14.34
2023-11-24T02:51:23.457Z,14.34
2023-11-24T02:53:50.076Z,14.43
2023-11-24T02:56:16.682Z,14.47
2023-11-24T02:58:43.245Z,14.58
2023-11-24T03:01:11.870Z,14.47
2023-11-24T03:03:38.456Z,14.48
2023-11-24T03:06:05.066Z,14.52
2023-11-24T03:08:31.899Z,16.63
2023-11-24T03:10:58.479Z,14.66
2023-11-24T03:13:25.116Z,14.57
2023-11-24T03:15:52.538Z,14.78
2023-11-24T03:18:19.109Z,14.77
2023-11-24T03:20:45.753Z,14.70
2023-11-24T03:23:12.306Z,14.74
2023-11-24T03:25:38.836Z,14.46
2023-11-24T03:28:05.423Z,14.69
2023-11-24T03:30:31.966Z,14.41
2023-11-24T03:32:58.559Z,14.49
2023-11-24T03:35:25.123Z,14.03
2023-11-24T03:37:51.781Z,14.35
2023-11-24T03:40:18.403Z,14.17
2023-11-24T03:42:45.008Z,14.58
2023-11-24T03:45:11.740Z,15.50
2023-11-24T03:47:38.308Z,14.79
2023-11-24T03:50:05.341Z,14.13
2023-11-24T03:52:32.022Z,14.02
2023-11-24T03:54:58.568Z,14.16
2023-11-24T03:57:25.323Z,14.45
2023-11-24T03:59:51.988Z,14.42
2023-11-24T04:02:18.550Z,14.39
2023-11-24T04:04:45.368Z,14.29
2023-11-24T04:07:11.964Z,14.03
2023-11-24T04:09:38.489Z,14.11
2023-11-24T04:12:05.362Z,14.02
2023-11-24T04:14:31.950Z,13.92
2023-11-24T04:17:01.273Z,13.97
2023-11-24T04:19:28.091Z,13.90
2023-11-24T04:21:54.601Z,13.81
2023-11-24T04:24:21.180Z,13.72
2023-11-24T04:26:47.707Z,13.88
2023-11-24T04:29:14.232Z,13.83
2023-11-24T04:31:40.813Z,13.77
2023-11-24T04:34:07.506Z,13.71
2023-11-24T04:36:34.199Z,13.83
2023-11-24T04:39:00.724Z,14.04
2023-11-24T04:41:27.623Z,13.60
2023-11-24T04:43:54.272Z,13.93
2023-11-24T04:46:20.928Z,14.31
2023-11-24T04:48:47.527Z,14.06
2023-11-24T04:51:14.032Z,14.13
2023-11-24T04:53:41.556Z,14.02
2023-11-24T04:56:08.417Z,14.01
2023-11-24T04:58:34.956Z,14.13
2023-11-24T05:01:01.549Z,14.04
2023-11-24T05:03:28.186Z,14.37
2023-11-24T05:05:54.772Z,14.47
2023-11-24T05:08:21.260Z,15.94
2023-11-24T05:10:47.827Z,14.97
2023-11-24T05:13:14.360Z,14.68
2023-11-24T05:15:40.916Z,14.12
2023-11-24T05:18:07.594Z,13.79
2023-11-24T05:20:34.126Z,13.81
2023-11-24T05:23:00.683Z,13.92
2023-11-24T05:25:27.196Z,13.61
2023-11-24T05:27:53.772Z,13.66
2023-11-24T05:30:20.273Z,13.59
2023-11-24T05:32:46.877Z,14.02
2023-11-24T05:35:13.461Z,13.75
2023-11-24T05:37:40.003Z,13.72
2023-11-24T05:40:07.493Z,13.66
2023-11-24T05:42:34.101Z,13.76
2023-11-24T05:45:00.692Z,13.89
2023-11-24T05:47:27.378Z,13.83
2023-11-24T05:49:53.911Z,13.84
2023-11-24T05:52:20.544Z,13.71
2023-11-24T05:54:47.288Z,13.70
2023-11-24T05:57:13.802Z,13.72
2023-11-24T05:59:40.500Z,13.44
2023-11-24T06:02:07.196Z,13.42
2023-11-24T06:04:33.858Z,13.37
2023-11-24T06:07:00.533Z,13.27
2023-11-24T06:09:27.160Z,13.44
2023-11-24T06:11:53.754Z,13.51
2023-11-24T06:14:20.280Z,13.41
2023-11-24T06:16:46.847Z,13.52
2023-11-24T06:19:13.459Z,13.63
2023-11-24T06:21:39.987Z,13.66
2023-11-24T06:24:06.877Z,13.51
2023-11-24T06:26:33.494Z,14.61
2023-11-24T06:28:59.994Z,16.76
2023-11-24T06:31:26.584Z,15.22
2023-11-24T06:33:53.206Z,13.38
2023-11-24T06:36:19.851Z,13.18
2023-11-24T06:38:46.334Z,13.22
2023-11-24T06:41:12.877Z,13.61
2023-11-24T06:43:39.446Z,13.76
2023-11-24T06:46:06.729Z,14.40
2023-11-24T06:48:33.522Z,14.57
2023-11-24T06:51:00.221Z,13.65
2023-11-24T06:53:26.815Z,13.35
2023-11-24T06:55:53.348Z,13.23
2023-11-24T06:58:19.870Z,13.48
2023-11-24T07:00:46.445Z,13.33
2023-11-24T07:03:12.981Z,13.25
2023-11-24T07:05:39.541Z,13.58
2023-11-24T07:08:06.097Z,14.15
2023-11-24T07:10:32.774Z,13.49
2023-11-24T07:12:59.336Z,13.46
2023-11-24T07:15:26.111Z,14.07
2023-11-24T07:17:52.852Z,13.97
2023-11-24T07:20:19.412Z,14.31
2023-11-24T07:22:46.017Z,14.42
2023-11-24T07:25:13.115Z,14.68
2023-11-24T07:27:39.657Z,14.67
2023-11-24T07:30:06.893Z,14.95
2023-11-24T07:32:33.563Z,15.43
2023-11-24T07:35:00.297Z,18.60
2023-11-24T07:37:26.852Z,16.03
2023-11-24T07:39:54.193Z,16.31
2023-11-24T07:42:20.767Z,16.34
2023-11-24T07:44:47.308Z,15.86
2023-11-24T07:47:13.802Z,15.91
2023-11-24T07:49:40.309Z,16.20
2023-11-24T07:52:07.085Z,16.67
2023-11-24T07:54:33.791Z,17.06
2023-11-24T07:57:00.317Z,17.20
2023-11-24T07:59:26.889Z,17.22
2023-11-24T08:01:53.694Z,17.73
2023-11-24T08:04:20.379Z,17.98
2023-11-24T08:06:47.107Z,18.34
2023-11-24T08:09:13.837Z,18.33
2023-11-24T08:11:40.388Z,18.42
2023-11-24T08:14:06.993Z,18.73
2023-11-24T08:16:33.585Z,18.84
2023-11-24T08:19:00.281Z,18.79
2023-11-24T08:21:26.919Z,19.20
2023-11-24T08:23:53.550Z,19.41
2023-11-24T08:26:20.461Z,19.53
2023-11-24T08:28:47.146Z,19.59
2023-11-24T08:31:21.014Z,19.78
2023-11-24T08:33:48.049Z,19.96
2023-11-24T08:36:14.614Z,19.94
2023-11-24T08:38:41.228Z,20.01
2023-11-24T08:41:26.227Z,19.96
2023-11-24T08:44:01.598Z,20.13
2023-11-24T08:46:28.343Z,20.42
2023-11-24T08:48:54.970Z,20.77
2023-11-24T08:51:21.520Z,21.12
2023-11-24T08:53:48.100Z,21.33
2023-11-24T08:56:14.644Z,21.71
2023-11-24T08:58:41.170Z,21.94
2023-11-24T09:01:07.854Z,22.11
2023-11-24T09:03:34.507Z,22.31
2023-11-24T09:06:01.201Z,22.47
2023-11-24T09:08:27.830Z,22.52
2023-11-24T09:10:54.543Z,22.61
2023-11-24T09:13:21.131Z,22.74
2023-11-24T09:15:47.725Z,22.81
2023-11-24T09:18:14.447Z,22.86
2023-11-24T09:20:41.013Z,23.10
2023-11-24T09:23:07.598Z,23.24
2023-11-24T09:25:34.104Z,23.50
2023-11-24T09:28:01.727Z,23.64
2023-11-24T09:30:28.735Z,23.83
2023-11-24T09:32:55.512Z,24.33
2023-11-24T09:35:26.415Z,24.58
2023-11-24T09:37:52.997Z,24.79
2023-11-24T09:40:20.160Z,24.92
2023-11-24T09:42:47.548Z,25.43
2023-11-24T09:45:18.024Z,25.33
2023-11-24T09:47:48.276Z,28.81
2023-11-24T09:50:15.270Z,25.58
2023-11-24T09:52:43.865Z,25.46
2023-11-24T09:55:10.519Z,25.73
2023-11-24T09:57:37.213Z,25.60
2023-11-24T10:00:04.086Z,25.65
2023-11-24T10:02:30.797Z,25.97
2023-11-24T10:04:57.512Z,25.73
2023-11-24T10:07:24.224Z,26.19
2023-11-24T10:09:51.329Z,26.25
2023-11-24T10:12:18.764Z,26.56
2023-11-24T10:14:45.594Z,26.37
2023-11-24T10:17:12.307Z,26.44
2023-11-24T10:19:39.155Z,26.66
2023-11-24T10:22:05.860Z,26.93
2023-11-24T10:24:36.852Z,27.03
2023-11-24T10:27:23.360Z,26.87
2023-11-24T10:29:51.040Z,26.89
2023-11-24T10:32:19.710Z,26.96
2023-11-24T10:34:47.036Z,27.07
2023-11-24T10:37:16.305Z,27.26
2023-11-24T10:39:45.933Z,27.55
2023-11-24T10:42:13.141Z,28.01
2023-11-24T10:44:41.865Z,28.23
2023-11-24T10:47:11.019Z,28.52
2023-11-24T10:49:58.701Z,28.46
2023-11-24T10:52:36.165Z,28.86
2023-11-24T10:55:10.658Z,28.88
2023-11-24T10:57:37.294Z,29.49
2023-11-24T11:00:04.715Z,29.62
2023-11-24T11:02:31.980Z,29.45
2023-11-24T11:05:02.490Z,29.27
2023-11-24T11:07:41.489Z,29.54
2023-11-24T11:10:08.838Z,29.54
2023-11-24T11:12:40.002Z,29.65
2023-11-24T11:15:10.347Z,29.58
2023-11-24T11:17:37.348Z,29.59
2023-11-24T11:20:10.563Z,29.52
2023-11-24T11:22:37.608Z,29.51
2023-11-24T11:25:25.705Z,29.57
2023-11-24T11:27:53.105Z,29.83
2023-11-24T11:30:20.702Z,29.96
2023-11-24T11:32:47.354Z,29.84
2023-11-24T11:35:14.070Z,30.28
2023-11-24T11:37:42.362Z,29.84
2023-11-24T11:40:13.926Z,30.08
2023-11-24T11:42:55.855Z,30.04
2023-11-24T11:45:22.549Z,30.35
2023-11-24T11:47:50.156Z,30.61
2023-11-24T11:50:20.951Z,30.11
2023-11-24T11:52:50.419Z,30.53
2023-11-24T11:55:24.223Z,30.83
2023-11-24T11:57:56.891Z,30.89
2023-11-24T12:00:31.064Z,30.81
2023-11-24T12:02:59.353Z,30.62
2023-11-24T12:05:26.444Z,30.91
2023-11-24T12:07:53.700Z,30.85
2023-11-24T12:10:20.591Z,30.37
2023-11-24T12:12:50.628Z,29.83
2023-11-24T12:15:17.358Z,29.85
2023-11-24T12:17:51.193Z,30.20
2023-11-24T12:20:18.030Z,31.64
2023-11-24T12:22:45.845Z,30.59
2023-11-24T12:25:12.949Z,30.33
2023-11-24T12:27:42.969Z,30.54
2023-11-24T12:30:13.521Z,30.74
2023-11-24T12:32:43.578Z,30.78
2023-11-24T12:35:10.644Z,30.87
2023-11-24T12:37:41.567Z,30.54
2023-11-24T12:40:09.658Z,30.29
2023-11-24T12:42:36.327Z,30.67
2023-11-24T12:45:03.148Z,30.50
2023-11-24T12:50:18.108Z,30.65
2023-11-24T12:52:46.278Z,30.66
2023-11-24T12:55:13.338Z,31.25
2023-11-24T12:57:41.700Z,31.16
2023-11-24T13:00:09.335Z,30.49
2023-11-24T13:02:37.609Z,30.59
2023-11-24T13:05:04.662Z,30.40
2023-11-24T13:07:31.434Z,30.54
2023-11-24T13:09:58.153Z,30.73
2023-11-24T13:12:24.786Z,30.80
2023-11-24T13:14:51.311Z,30.85
2023-11-24T13:17:17.910Z,30.62
2023-11-24T13:19:44.578Z,30.84
2023-11-24T13:22:11.455Z,30.67
2023-11-24T13:24:38.375Z,30.81
2023-11-24T13:27:05.953Z,30.70
2023-11-24T13:29:32.533Z,30.81
2023-11-24T13:31:59.378Z,30.70
2023-11-24T13:34:25.961Z,30.75
2023-11-24T13:36:52.598Z,31.11
2023-11-24T13:39:19.198Z,31.34
2023-11-24T13:41:45.904Z,31.82
2023-11-24T13:44:12.875Z,33.05
2023-11-24T13:46:39.732Z,32.14
2023-11-24T13:49:12.412Z,31.90
2023-11-24T13:51:39.089Z,32.64
2023-11-24T13:54:05.908Z,30.92
2023-11-24T13:56:32.548Z,30.23
2023-11-24T13:58:59.713Z,30.09
2023-11-24T14:01:26.593Z,29.68
2023-11-24T14:03:53.699Z,29.50
2023-11-24T14:06:20.308Z,29.88
2023-11-24T14:08:46.886Z,29.30
2023-11-24T14:11:13.500Z,29.89
2023-11-24T14:13:40.128Z,29.39
2023-11-24T14:16:07.163Z,29.61
2023-11-24T14:18:33.961Z,29.97
2023-11-24T14:21:00.603Z,29.65
2023-11-24T14:23:27.111Z,29.72
2023-11-24T14:25:53.720Z,29.72
2023-11-24T14:28:20.656Z,29.70
2023-11-24T14:30:47.256Z,29.57
2023-11-24T14:33:14.007Z,29.24
2023-11-24T14:35:40.540Z,29.41
2023-11-24T14:38:07.149Z,29.44
2023-11-24T14:40:33.769Z,29.49
2023-11-24T14:43:00.670Z,29.72
2023-11-24T14:45:27.303Z,29.84
2023-11-24T14:47:53.861Z,30.10
2023-11-24T14:50:21.346Z,29.89
2023-11-24T14:52:47.950Z,29.69
2023-11-24T14:55:14.588Z,29.60
2023-11-24T14:57:41.126Z,29.17
2023-11-24T15:00:08.167Z,29.24
2023-11-24T15:02:34.976Z,29.25
2023-11-24T15:05:01.752Z,29.27
2023-11-24T15:07:28.441Z,29.18
2023-11-24T15:09:54.952Z,29.00
2023-11-24T15:12:21.524Z,29.17
2023-11-24T15:14:48.055Z,28.45
2023-11-24T15:17:14.646Z,28.21
2023-11-24T15:19:41.277Z,27.92
2023-11-24T15:22:08.250Z,27.50
2023-11-24T15:24:35.258Z,27.06
2023-11-24T15:27:01.855Z,26.54
2023-11-24T15:29:28.373Z,25.85
2023-11-24T15:31:55.060Z,25.29
2023-11-24T15:34:21.732Z,24.74
2023-11-24T15:36:48.921Z,24.12
2023-11-24T15:39:15.486Z,23.81
2023-11-24T15:41:42.128Z,23.61
2023-11-24T15:44:11.825Z,23.29
2023-11-24T15:46:39.910Z,23.22
2023-11-24T15:49:06.726Z,22.96
2023-11-24T15:51:33.302Z,22.77
2023-11-24T15:53:59.916Z,22.67
2023-11-24T15:56:29.564Z,22.38
2023-11-24T15:58:56.087Z,22.43
2023-11-24T16:01:23.745Z,22.42
2023-11-24T16:03:50.870Z,23.66
2023-11-24T16:06:18.126Z,22.19
2023-11-24T16:08:44.639Z,21.98
2023-11-24T16:11:11.836Z,24.14
2023-11-24T16:13:38.639Z,23.52
2023-11-24T16:16:05.699Z,22.49
2023-11-24T16:18:35.466Z,23.58
2023-11-24T16:21:02.528Z,21.99
2023-11-24T16:23:29.010Z,22.07
2023-11-24T16:25:55.577Z,22.15
2023-11-24T16:28:22.198Z,22.01
2023-11-24T16:30:48.798Z,21.58
2023-11-24T16:33:15.546Z,21.76
2023-11-24T16:35:42.052Z,21.48
2023-11-24T16:38:08.819Z,21.38
2023-11-24T16:40:35.535Z,21.11
2023-11-24T16:43:02.250Z,21.07
2023-11-24T16:45:28.801Z,20.97
2023-11-24T16:47:55.334Z,20.82
2023-11-24T16:50:21.901Z,21.26
2023-11-24T16:52:48.454Z,20.86
2023-11-24T16:55:15.019Z,20.94
2023-11-24T16:57:41.653Z,20.93
2023-11-24T17:00:08.837Z,20.82
2023-11-24T17:02:35.657Z,20.92
2023-11-24T17:05:02.553Z,20.77
2023-11-24T17:07:29.144Z,20.89
2023-11-24T17:09:55.815Z,20.85
2023-11-24T17:12:22.390Z,20.59
2023-11-24T17:14:48.954Z,20.58
2023-11-24T17:17:15.779Z,20.68
2023-11-24T17:19:42.312Z,20.63
2023-11-24T17:22:08.936Z,20.32
2023-11-24T17:24:35.522Z,20.33
2023-11-24T17:27:02.436Z,20.45
2023-11-24T17:29:28.929Z,20.22
2023-11-24T17:31:55.498Z,20.31
2023-11-24T17:34:22.821Z,20.59
2023-11-24T17:36:49.594Z,20.42
2023-11-24T17:39:16.171Z,20.11
2023-11-24T17:41:42.810Z,20.11
2023-11-24T17:44:10.095Z,20.04
2023-11-24T17:46:39.397Z,19.83
2023-11-24T17:49:06.444Z,19.73
2023-11-24T17:51:33.098Z,19.56
2023-11-24T17:54:00.530Z,19.53
2023-11-24T17:56:27.638Z,19.50
2023-11-24T17:58:54.206Z,19.46
2023-11-24T18:01:20.846Z,19.67
2023-11-24T18:03:47.744Z,19.33
2023-11-24T18:06:14.392Z,19.31
2023-11-24T18:08:40.934Z,19.41
2023-11-24T18:11:07.797Z,19.22
2023-11-24T18:13:34.748Z,19.39
2023-11-24T18:16:01.391Z,19.00
2023-11-24T18:18:28.155Z,19.06
2023-11-24T18:20:54.712Z,18.99
2023-11-24T18:23:21.275Z,19.38
2023-11-24T18:25:47.858Z,18.72
2023-11-24T18:28:14.560Z,18.70
2023-11-24T18:30:41.214Z,18.61
2023-11-24T18:33:07.860Z,18.82
2023-11-24T18:35:34.503Z,18.75
2023-11-24T18:38:01.135Z,18.63
2023-11-24T18:40:27.779Z,18.67
2023-11-24T18:42:54.566Z,18.57
2023-11-24T18:45:21.119Z,18.61
2023-11-24T18:47:47.935Z,18.63
2023-11-24T18:50:14.583Z,18.48
2023-11-24T18:52:41.459Z,18.36
2023-11-24T18:55:08.265Z,18.47
2023-11-24T18:57:35.037Z,18.63
2023-11-24T19:00:02.072Z,18.62
2023-11-24T19:02:28.753Z,18.77
2023-11-24T19:04:55.732Z,18.95
2023-11-24T19:07:22.857Z,18.60
2023-11-24T19:09:52.575Z,18.51
2023-11-24T19:12:19.358Z,18.56
2023-11-24T19:14:45.899Z,18.74
2023-11-24T19:17:12.456Z,18.72
2023-11-24T19:19:39.029Z,18.57
2023-11-24T19:22:05.567Z,18.42
2023-11-24T19:24:32.114Z,18.39
2023-11-24T19:26:58.667Z,18.32
2023-11-24T19:29:25.128Z,18.15
2023-11-24T19:31:51.768Z,18.21
2023-11-24T19:34:18.362Z,18.19
2023-11-24T19:36:44.950Z,18.15
2023-11-24T19:39:11.457Z,20.29
2023-11-24T19:41:38.170Z,18.21
2023-11-24T19:44:05.151Z,18.47
2023-11-24T19:46:31.784Z,18.23
2023-11-24T19:48:58.333Z,18.03
2023-11-24T19:51:24.829Z,18.01
2023-11-24T19:53:53.443Z,17.93
2023-11-24T19:56:20.976Z,17.86
2023-11-24T19:58:47.525Z,17.77
2023-11-24T20:01:20.324Z,17.80
2023-11-24T20:03:47.491Z,18.11
2023-11-24T20:06:14.258Z,18.15
2023-11-24T20:08:40.838Z,18.23
2023-11-24T20:11:07.362Z,17.98
2023-11-24T20:13:34.104Z,18.13
2023-11-24T20:16:00.820Z,18.07
2023-11-24T20:18:29.587Z,18.03
2023-11-24T20:20:56.140Z,18.10
2023-11-24T20:23:22.685Z,17.96
2023-11-24T20:25:49.239Z,18.00
2023-11-24T20:28:15.852Z,18.14
2023-11-24T20:30:42.349Z,18.28
2023-11-24T20:33:08.893Z,18.33
2023-11-24T20:35:35.418Z,18.45
2023-11-24T20:38:01.963Z,18.39
2023-11-24T20:40:28.593Z,18.38
2023-11-24T20:42:55.177Z,18.41
2023-11-24T20:45:21.806Z,18.44
2023-11-24T20:47:48.481Z,18.31
2023-11-24T20:50:15.089Z,18.50
2023-11-24T20:52:41.673Z,18.62
2023-11-24T20:55:08.442Z,18.52
2023-11-24T20:57:34.981Z,18.53
2023-11-24T21:00:01.561Z,18.70
2023-11-24T21:02:28.220Z,18.53
2023-11-24T21:04:54.768Z,18.66
2023-11-24T21:07:21.333Z,18.45
2023-11-24T21:09:47.955Z,18.56
2023-11-24T21:12:14.441Z,18.48
2023-11-24T21:14:40.951Z,18.65
2023-11-24T21:17:07.569Z,18.46
2023-11-24T21:19:34.145Z,18.37
2023-11-24T21:22:00.790Z,18.06
2023-11-24T21:24:27.416Z,18.15
2023-11-24T21:26:53.910Z,18.11
2023-11-24T21:29:20.432Z,18.17
2023-11-24T21:31:46.990Z,18.25
2023-11-24T21:34:13.537Z,18.24
2023-11-24T21:36:40.131Z,18.32
2023-11-24T21:39:06.721Z,18.47
2023-11-24T21:41:33.302Z,18.08
2023-11-24T21:43:59.895Z,18.10
2023-11-24T21:46:26.650Z,18.03
2023-11-24T21:48:53.299Z,17.97
2023-11-24T21:51:19.921Z,18.06
2023-11-24T21:53:46.590Z,17.93
2023-11-24T21:56:13.281Z,17.91
2023-11-24T21:58:40.511Z,17.86
2023-11-24T22:01:07.191Z,17.67
2023-11-24T22:03:33.935Z,17.80
2023-11-24T22:06:00.510Z,18.08
2023-11-24T22:08:27.018Z,17.85
2023-11-24T22:10:53.649Z,17.88
2023-11-24T22:13:20.661Z,17.63
2023-11-24T22:15:47.204Z,17.75
2023-11-24T22:18:13.813Z,17.85
2023-11-24T22:20:40.382Z,17.70
2023-11-24T22:23:06.915Z,17.75
2023-11-24T22:25:34.358Z,17.60
2023-11-24T22:28:01.035Z,18.60
2023-11-24T22:30:27.731Z,20.96
2023-11-24T22:32:54.268Z,19.01
2023-11-24T22:35:20.755Z,19.72
2023-11-24T22:37:47.288Z,19.39
2023-11-24T22:40:14.003Z,17.56
2023-11-24T22:42:40.602Z,17.19
2023-11-24T22:45:07.944Z,17.17
2023-11-24T22:47:34.584Z,17.04
2023-11-24T22:50:01.203Z,16.53
2023-11-24T22:52:27.803Z,16.62
2023-11-24T22:54:54.326Z,16.40
2023-11-24T22:57:20.847Z,16.49
2023-11-24T22:59:48.232Z,16.60
2023-11-24T23:02:14.904Z,16.78
2023-11-24T23:04:41.572Z,16.69
2023-11-24T23:07:08.268Z,17.96
2023-11-24T23:09:34.833Z,16.54
2023-11-24T23:12:01.325Z,16.57
2023-11-24T23:14:27.788Z,16.58
2023-11-24T23:16:54.309Z,16.66
2023-11-24T23:19:20.991Z,16.27
2023-11-24T23:21:49.616Z,16.18
2023-11-24T23:24:16.128Z,16.66
2023-11-24T23:26:42.812Z,21.68
2023-11-24T23:29:09.292Z,22.39
2023-11-24T23:31:36.006Z,16.96
2023-11-24T23:34:02.900Z,16.33
2023-11-24T23:36:29.623Z,16.82
2023-11-24T23:38:56.231Z,16.18
2023-11-24T23:41:22.747Z,24.11
2023-11-24T23:43:49.391Z,24.05
2023-11-24T23:46:16.036Z,20.30
2023-11-24T23:48:42.612Z,17.17
2023-11-24T23:51:09.177Z,15.27
2023-11-24T23:53:35.892Z,17.86
2023-11-24T23:56:02.477Z,19.14
2023-11-24T23:58:29.519Z,18.44
